South Berwick, Maine
Current Conditions -  °F | °C
As of 1:51 PM on Saturday 25 Oct 2014 (Local Time) from KDAW Reporting Station
Clear Clear  
Wind Chill: 65°   Ceiling: Unl
Heat Index: 65°   Visibility: 10mi
Dew Point: 34°   Wind: 8mph
Humidity: 32%   Direction: 300°WNW
Pressure: 29.61"   Gusts: 17mph
Location:  43.23°N, 70.81°W
Report Text: KDAW 251751Z AUTO 30007G15KT 10SM CLR 18/01 A2961 RMK AO2 SLP023 T01830011 10183 20083 58023
Loading
Personal Weather Stations






























Interactive Weather Map
Tropical Storm Tracking
New forecast layout! Learn more

10-Day Weather Forecast

Advertisements
Track Severe Weather on mobile